UAL2299 KSAN-KLAX
Flight info
| Callsign | UAL2299 |
|---|---|
| Flight time | N/A |
| Altitude | 10000 |
| Route | CWARD2 SLI |
| Aircraft | B738/M-SDE2E3FGHIRWXY/LB1 |
Departure
| Time | 2026-04-24 03:13 |
|---|---|
| Airport | San Diego International Airport (KSAN) |
Arrival
| Time | N/A |
|---|---|
| Airport | Los Angeles International Airport (KLAX) |
| Time | Latitude | Longitude | Altitude | Speed | Heading |
|---|---|---|---|---|---|
| 2026-04-24 02:48 | 32.73457 | -117.20450 | 20 ft | 0 kts | 136° |
| 2026-04-24 03:03 | 32.73458 | -117.20452 | 11 ft | 3 kts | 136° |
| 2026-04-24 03:03 | 32.73477 | -117.20474 | 20 ft | 4 kts | 136° |
| 2026-04-24 03:03 | 32.73497 | -117.20496 | 19 ft | 4 kts | 133° |
| 2026-04-24 03:04 | 32.73505 | -117.20517 | 17 ft | 4 kts | 61° |
| 2026-04-24 03:04 | 32.73493 | -117.20537 | 20 ft | 4 kts | 50° |
| 2026-04-24 03:04 | 32.73489 | -117.20543 | 20 ft | 1 kts | 50° |
| 2026-04-24 03:07 | 32.73501 | -117.20526 | 20 ft | 5 kts | 49° |
| 2026-04-24 03:07 | 32.73535 | -117.20479 | 16 ft | 10 kts | 49° |
| 2026-04-24 03:07 | 32.73586 | -117.20405 | 17 ft | 12 kts | 59° |
| 2026-04-24 03:08 | 32.73585 | -117.20329 | 20 ft | 9 kts | 105° |
| 2026-04-24 03:08 | 32.73545 | -117.20163 | 24 ft | 13 kts | 105° |
| 2026-04-24 03:08 | 32.73516 | -117.20046 | 21 ft | 16 kts | 107° |
| 2026-04-24 03:09 | 32.73482 | -117.19907 | 23 ft | 19 kts | 105° |
| 2026-04-24 03:09 | 32.73444 | -117.19750 | 24 ft | 22 kts | 107° |
| 2026-04-24 03:09 | 32.73398 | -117.19559 | 24 ft | 25 kts | 105° |
| 2026-04-24 03:09 | 32.73351 | -117.19364 | 21 ft | 24 kts | 106° |
| 2026-04-24 03:10 | 32.73306 | -117.19181 | 19 ft | 23 kts | 106° |
| 2026-04-24 03:10 | 32.73263 | -117.19004 | 21 ft | 22 kts | 106° |
| 2026-04-24 03:10 | 32.73221 | -117.18831 | 22 ft | 21 kts | 106° |
| 2026-04-24 03:10 | 32.73175 | -117.18640 | 26 ft | 28 kts | 105° |
| 2026-04-24 03:11 | 32.73117 | -117.18399 | 24 ft | 31 kts | 106° |
| 2026-04-24 03:11 | 32.73058 | -117.18154 | 23 ft | 30 kts | 106° |
| 2026-04-24 03:11 | 32.73001 | -117.17925 | 20 ft | 28 kts | 106° |
| 2026-04-24 03:11 | 32.72954 | -117.17729 | 21 ft | 19 kts | 105° |
| 2026-04-24 03:12 | 32.72977 | -117.17593 | 24 ft | 16 kts | 55° |
| 2026-04-24 03:12 | 32.73029 | -117.17614 | 22 ft | 8 kts | 291° |
| 2026-04-24 03:12 | 32.73043 | -117.17669 | 21 ft | 8 kts | 286° |
| 2026-04-24 03:12 | 32.73117 | -117.17971 | 19 ft | 81 kts | 286° |
| 2026-04-24 03:13 | 32.73347 | -117.18926 | 27 ft | 157 kts | 286° |
| 2026-04-24 03:13 | 32.73672 | -117.20255 | 759 ft | 170 kts | 287° |
| 2026-04-24 03:13 | 32.74067 | -117.21635 | 1656 ft | 185 kts | 297° |
| 2026-04-24 03:13 | 32.74794 | -117.22988 | 2230 ft | 200 kts | 306° |
| 2026-04-24 03:14 | 32.75653 | -117.24391 | 2546 ft | 217 kts | 306° |
| 2026-04-24 03:14 | 32.76571 | -117.25916 | 2785 ft | 237 kts | 305° |
| 2026-04-24 03:14 | 32.77565 | -117.27591 | 3090 ft | 256 kts | 305° |
| 2026-04-24 03:14 | 32.78570 | -117.29323 | 3753 ft | 261 kts | 303° |
| 2026-04-24 03:15 | 32.79583 | -117.31128 | 4429 ft | 264 kts | 303° |
| 2026-04-24 03:15 | 32.80620 | -117.32937 | 5170 ft | 266 kts | 306° |
| 2026-04-24 03:15 | 32.81743 | -117.34697 | 6083 ft | 268 kts | 307° |
| 2026-04-24 03:15 | 32.82889 | -117.36454 | 7025 ft | 268 kts | 307° |
| 2026-04-24 03:16 | 32.84039 | -117.38214 | 7892 ft | 271 kts | 306° |
| 2026-04-24 03:16 | 32.84822 | -117.39415 | 8475 ft | 273 kts | 306° |